METAR Data
IDs: Format: Raw Decoded Include TAF

Data at: 1405 UTC 10 Aug 2022

KMMH 101400Z AUTO 00000KT 10SM CLR 08/07 A3035 RMK AO2
KMMH 101344Z AUTO 00000KT 10SM CLR 09/06 A3035 RMK AO2
KMMH 101303Z AUTO 00000KT 10SM CLR 08/06 A3033 RMK AO2
KMMH 101226Z AUTO 00000KT 10SM CLR 08/06 A3033 RMK AO2
KMMH 101203Z AUTO 00000KT 10SM CLR 07/06 A3032 RMK AO2
KMMH 101140Z AUTO 01003KT 10SM CLR 08/06 A3032 RMK AO2
KMMH 101120Z AUTO 00000KT 10SM CLR 09/07 A3032 RMK AO2
KMMH 101100Z AUTO 00000KT 10SM CLR 09/07 A3032 RMK AO2
KMMH 101040Z AUTO 00000KT 10SM CLR 10/07 A3031 RMK AO2
KMMH 101020Z AUTO 00000KT 10SM CLR 09/07 A3031 RMK AO2
KMMH 101000Z AUTO 35003KT 10SM CLR 09/07 A3032 RMK AO2
KMMH 100940Z AUTO 00000KT 10SM CLR 10/07 A3032 RMK AO2
KMMH 100920Z AUTO 00000KT 10SM CLR 10/08 A3032 RMK AO2
KMMH 100900Z AUTO 26003KT 10SM CLR 12/08 A3031 RMK AO2
KMMH 100840Z AUTO 00000KT 10SM CLR 12/08 A3032 RMK AO2
KMMH 100823Z AUTO 00000KT 10SM CLR 12/08 A3031 RMK AO2
KMMH 100740Z AUTO 00000KT 10SM CLR 12/08 A3032 RMK AO2
KMMH 100723Z AUTO 21003KT 10SM CLR 14/09 A3033 RMK AO2
KMMH 100701Z AUTO 00000KT 10SM CLR 15/09 A3033 RMK AO2
KMMH 100641Z AUTO 00000KT 10SM CLR 14/08 A3032 RMK AO2
KMMH 100621Z AUTO 00000KT 10SM CLR 15/08 A3032 RMK AO2
KMMH 100601Z AUTO 00000KT 10SM CLR 16/08 A3032 RMK AO2
KMMH 100540Z AUTO 28009KT 10SM CLR 17/08 A3032 RMK AO2
KMMH 100521Z AUTO 00000KT 10SM CLR 16/08 A3032 RMK AO2
KMMH 100501Z AUTO 27004KT 10SM CLR 17/08 A3032 RMK AO2
KMMH 100443Z AUTO 00000KT 10SM CLR 19/07 A3031 RMK AO2
KMMH 100423Z AUTO 30011G18KT 10SM CLR 18/08 A3030 RMK AO2
KMMH 100403Z AUTO 31006KT 10SM CLR 18/08 A3030 RMK AO2
KMMH 100340Z AUTO 27006G17KT 10SM CLR 18/08 A3028 RMK AO2
KMMH 100324Z AUTO 27015G19KT 10SM CLR 19/09 A3028 RMK AO2
KMMH 100300Z AUTO 30010KT 10SM SCT070 19/08 A3028 RMK AO2
KMMH 100240Z AUTO 29013G16KT 10SM SCT070 20/09 A3028 RMK AO2
KMMH 100223Z AUTO 24003KT 10SM SCT070 21/08 A3027 RMK AO2
KMMH 100200Z AUTO 25003KT 10SM SCT070 21/08 A3027 RMK AO2
KMMH 100140Z AUTO 29006KT 10SM SCT080 21/08 A3026 RMK AO2
KMMH 100120Z AUTO 30009KT 10SM BKN075 21/08 A3026 RMK AO2
KMMH 100100Z AUTO 26005KT 10SM BKN075 22/06 A3026 RMK AO2
KMMH 100044Z AUTO 27007KT 10SM BKN075 22/06 A3026 RMK AO2
KMMH 100020Z AUTO 23009KT 10SM BKN075 BKN090 22/06 A3026 RMK AO2
KMMH 100001Z AUTO 22007G14KT 10SM BKN075 23/05 A3026 RMK AO2
KMMH 092343Z AUTO 23011G16KT 10SM BKN075 23/05 A3026 RMK AO2
KMMH 092320Z AUTO 25008G17KT 10SM BKN075 BKN120 23/06 A3026 RMK AO2
KMMH 092303Z AUTO 21009G18KT 10SM SCT075 SCT120 24/05 A3026 RMK AO2
KMMH 092242Z AUTO 25009G24KT 10SM SCT075 SCT085 BKN120 23/05 A3027 RMK AO2
KMMH 092220Z AUTO 23013G21KT 10SM SCT060 BKN075 OVC110 24/06 A3027 RMK AO2
KMMH 092204Z AUTO 27009G14KT 10SM BKN060 BKN075 OVC120 23/08 A3028 RMK AO2
KMMH 092143Z AUTO 32004KT 10SM SCT075 OVC120 24/08 A3028 RMK AO2
KMMH 092106Z AUTO 10003KT 10SM BKN075 OVC095 21/12 A3029 RMK AO2
KMMH 092040Z AUTO 13006KT 10SM SCT070 OVC085 22/09 A3029 RMK AO2
KMMH 092023Z AUTO 10008KT 10SM BKN070 OVC085 24/09 A3029 RMK AO2
KMMH 092003Z AUTO 13005KT 10SM BKN070 OVC085 22/09 A3030 RMK AO2
KMMH 091940Z AUTO 14006KT 10SM SCT070 BKN085 BKN120 23/10 A3030 RMK AO2
KMMH 091923Z AUTO 13007KT 10SM SCT075 BKN085 BKN120 24/10 A3030 RMK AO2
KMMH 091900Z AUTO 12007KT 10SM SCT075 BKN085 OVC120 24/10 A3031 RMK AO2
KMMH 091840Z AUTO 11007KT 10SM SCT085 OVC110 22/10 A3032 RMK AO2
KMMH 091820Z AUTO 00000KT 10SM SCT120 22/11 A3032 RMK AO2
KMMH 091800Z AUTO 00000KT 10SM BKN120 21/11 A3032 RMK AO2
KMMH 091742Z AUTO 00000KT 10SM OVC120 21/11 A3032 RMK AO2
KMMH 091720Z AUTO 00000KT 10SM BKN120 21/11 A3032 RMK AO2
KMMH 091700Z AUTO 00000KT 10SM SCT085 SCT120 20/11 A3032 RMK AO2
KMMH 091600Z AUTO 00000KT 10SM OVC075 17/11 A3032 RMK AO2
KMMH 091540Z AUTO 00000KT 10SM OVC075 16/12 A3032 RMK AO2
KMMH 091520Z AUTO 00000KT 10SM OVC085 15/11 A3032 RMK AO2
KMMH 091500Z AUTO 00000KT 10SM OVC085 15/11 A3031 RMK AO2
KMMH 091440Z AUTO 00000KT 10SM OVC085 14/11 A3031 RMK AO2
KMMH 091423Z AUTO 00000KT 10SM BKN085 OVC120 13/11 A3031 RMK AO2
KMMH 091400Z AUTO 00000KT 10SM SCT080 OVC110 13/11 A3031 RMK AO2
KMMH 091340Z AUTO 00000KT 10SM BKN080 OVC110 12/10 A3031 RMK AO2
KMMH 091323Z AUTO 00000KT 10SM BKN080 OVC110 12/10 A3031 RMK AO2
KMMH 091300Z AUTO 00000KT 10SM BKN080 OVC110 12/10 A3030 RMK AO2
KMMH 091220Z AUTO 34003KT 10SM SCT080 BKN120 11/10 A3030 RMK AO2
KMMH 091204Z AUTO 00000KT 10SM SCT080 SCT110 11/10 A3030 RMK AO2
KMMH 091140Z AUTO 00000KT 10SM OVC110 10/10 A3030 RMK AO2
KMMH 091120Z AUTO 00000KT 10SM SCT110 10/10 A3030 RMK AO2
KMMH 091102Z AUTO 00000KT 10SM CLR 11/09 A3030 RMK AO2
KMMH 091040Z AUTO 00000KT 10SM SCT080 SCT100 11/10 A3030 RMK AO2
KMMH 091023Z AUTO 01003KT 10SM SCT090 SCT100 11/09 A3030 RMK AO2
KMMH 091000Z AUTO 00000KT 10SM SCT090 12/10 A3030 RMK AO2
KMMH 090940Z AUTO 00000KT 10SM SCT090 BKN120 11/10 A3031 RMK AO2
KMMH 090920Z AUTO 34003KT 10SM SCT090 OVC120 11/10 A3031 RMK AO2
KMMH 090900Z AUTO 00000KT 10SM OVC120 12/10 A3031 RMK AO2
KMMH 090840Z AUTO 00000KT 10SM BKN120 12/10 A3032 RMK AO2
KMMH 090820Z AUTO 00000KT 10SM SCT120 12/10 A3032 RMK AO2
KMMH 090800Z AUTO 00000KT 10SM BKN120 12/10 A3032 RMK AO2
KMMH 090740Z AUTO 33003KT 10SM SCT120 13/10 A3033 RMK AO2
KMMH 090720Z AUTO 02003KT 10SM BKN110 13/10 A3033 RMK AO2
KMMH 090700Z AUTO 00000KT 10SM BKN110 13/11 A3033 RMK AO2
KMMH 090620Z AUTO 00000KT 10SM SCT120 13/11 A3032 RMK AO2
KMMH 090601Z AUTO 00000KT 10SM CLR 13/11 A3033 RMK AO2
KMMH 090540Z AUTO 00000KT 10SM SCT100 15/11 A3033 RMK AO2
KMMH 090520Z AUTO 00000KT 10SM OVC100 15/11 A3033 RMK AO2
KMMH 090502Z AUTO 00000KT 10SM BKN100 15/11 A3034 RMK AO2
KMMH 090440Z AUTO 00000KT 10SM CLR 16/11 A3033 RMK AO2
KMMH 090420Z AUTO 34003KT 10SM SCT100 14/11 A3032 RMK AO2
KMMH 090400Z AUTO 00000KT 10SM BKN090 BKN120 15/11 A3032 RMK AO2
KMMH 090340Z AUTO 29005G08KT 10SM SCT046 SCT065 OVC090 16/11 A3032 RMK AO2 P0001
KMMH 090322Z AUTO 22010G23KT 10SM -RA SCT046 BKN060 OVC080 16/11 A3032 RMK AO2 P0001
KMMH 090300Z AUTO 17014G19KT 10SM -RA SCT050 SCT060 OVC090 20/12 A3033 RMK AO2
KMMH 090240Z AUTO 29009KT 10SM SCT031 SCT055 OVC090 21/10 A3031 RMK AO2
KMMH 090223Z AUTO 27003KT 10SM -RA SCT034 BKN070 OVC080 21/11 A3030 RMK AO2